CPM7 weather

Bradford Airport
Bradford, Ontario, Canada

Public forecast

Using degrees Celsius for public forecast. Weather courtesy of forecast.io.

Closest aviation weather report (METAR) to Bradford Airport

Closest report is CFB Borden, 14.7 nm (27.2 km) NW. Retrieved 2019/10/19 21:00 UTC (39 minutes ago):

CYBN 192100Z AUTO 16010KT 9SM CLR 13/04 A2994 RMK SLP145

Closest aviation forecast (TAF) to Bradford Airport

Forecast is more than 12 hours old.

Closest forecast is CFB Borden, 14.7 nm (27.2 km) NW. Retrieved 2019/10/18 18:33 UTC (1 day ago):

TAF TAF CYBN 181730Z 1818/1906 33010KT P6SM BKN020 BECMG 1818/1819 SCT025 SCT240 BECMG 1823/1901 VRB03KT RMK FCST BASED ON AUTO OBS NXT FCST BY 190000Z